sensor_id;sensor_type;location;lat;lon;timestamp;pressure;altitude;pressure_sealevel;temperature;humidity
78509;BME280;67802;50.846;7.958;2023-08-31T00:00:32;97180.63;;;19.41;53.06
78509;BME280;67802;50.846;7.958;2023-08-31T00:02:59;97178.97;;;19.40;52.95
78509;BME280;67802;50.846;7.958;2023-08-31T00:05:25;97174.78;;;19.38;52.94
78509;BME280;67802;50.846;7.958;2023-08-31T00:07:53;97169.66;;;19.36;53.10
78509;BME280;67802;50.846;7.958;2023-08-31T00:10:19;97175.91;;;19.35;52.89
78509;BME280;67802;50.846;7.958;2023-08-31T00:12:44;97175.91;;;19.35;52.95
78509;BME280;67802;50.846;7.958;2023-08-31T00:15:10;97170.91;;;19.32;52.52
78509;BME280;67802;50.846;7.958;2023-08-31T00:17:35;97178.81;;;19.32;52.83
78509;BME280;67802;50.846;7.958;2023-08-31T00:20:01;97178.13;;;19.30;52.80
78509;BME280;67802;50.846;7.958;2023-08-31T00:22:27;97173.81;;;19.29;52.83
78509;BME280;67802;50.846;7.958;2023-08-31T00:24:53;97175.63;;;19.28;52.97
78509;BME280;67802;50.846;7.958;2023-08-31T00:27:19;97175.63;;;19.28;52.98
78509;BME280;67802;50.846;7.958;2023-08-31T00:29:45;97169.53;;;19.28;53.11
78509;BME280;67802;50.846;7.958;2023-08-31T00:32:15;97172.03;;;19.30;53.03
78509;BME280;67802;50.846;7.958;2023-08-31T00:34:40;97171.06;;;19.31;52.99
78509;BME280;67802;50.846;7.958;2023-08-31T00:37:05;97170.91;;;19.32;53.01
78509;BME280;67802;50.846;7.958;2023-08-31T00:39:31;97168.28;;;19.32;52.94
78509;BME280;67802;50.846;7.958;2023-08-31T00:41:58;97175.06;;;19.35;52.96
78509;BME280;67802;50.846;7.958;2023-08-31T00:44:24;97181.88;;;19.37;52.77
78509;BME280;67802;50.846;7.958;2023-08-31T00:46:49;97173.00;;;19.38;52.81
78509;BME280;67802;50.846;7.958;2023-08-31T00:49:15;97189.50;;;19.40;52.75
78509;BME280;67802;50.846;7.958;2023-08-31T00:51:40;97181.44;;;19.42;52.73
78509;BME280;67802;50.846;7.958;2023-08-31T00:54:07;97179.50;;;19.44;52.70
78509;BME280;67802;50.846;7.958;2023-08-31T00:56:32;97183.69;;;19.47;52.62
78509;BME280;67802;50.846;7.958;2023-08-31T00:58:58;97183.69;;;19.47;52.62
78509;BME280;67802;50.846;7.958;2023-08-31T01:04:28;97171.22;;;19.49;52.71
78509;BME280;67802;50.846;7.958;2023-08-31T01:07:12;97171.06;;;19.50;52.73
78509;BME280;67802;50.846;7.958;2023-08-31T01:12:19;97172.72;;;19.51;52.66
78509;BME280;67802;50.846;7.958;2023-08-31T01:14:54;97181.47;;;19.52;52.75
78509;BME280;67802;50.846;7.958;2023-08-31T01:17:23;97176.19;;;19.52;52.67
78509;BME280;67802;50.846;7.958;2023-08-31T01:19:52;97171.91;;;19.51;52.49
78509;BME280;67802;50.846;7.958;2023-08-31T01:25:22;97187.00;;;19.49;52.29
78509;BME280;67802;50.846;7.958;2023-08-31T01:27:48;97173.16;;;19.47;52.46
78509;BME280;67802;50.846;7.958;2023-08-31T01:30:13;97179.22;;;19.47;52.36
78509;BME280;67802;50.846;7.958;2023-08-31T01:32:45;97173.16;;;19.47;52.53
78509;BME280;67802;50.846;7.958;2023-08-31T01:35:11;97173.16;;;19.47;52.61
78509;BME280;67802;50.846;7.958;2023-08-31T01:37:50;97187.13;;;19.47;52.60
78509;BME280;67802;50.846;7.958;2023-08-31T01:40:21;97179.38;;;19.46;52.57
78509;BME280;67802;50.846;7.958;2023-08-31T01:42:48;97185.34;;;19.48;52.51
78509;BME280;67802;50.846;7.958;2023-08-31T01:45:19;97181.06;;;19.47;52.39
78509;BME280;67802;50.846;7.958;2023-08-31T01:47:46;97178.41;;;19.47;52.30
78509;BME280;67802;50.846;7.958;2023-08-31T01:50:11;97182.84;;;19.46;52.33
78509;BME280;67802;50.846;7.958;2023-08-31T01:52:37;97182.03;;;19.46;52.53
78509;BME280;67802;50.846;7.958;2023-08-31T01:55:02;97181.16;;;19.45;52.49
78509;BME280;67802;50.846;7.958;2023-08-31T01:57:28;97189.22;;;19.43;52.41
78509;BME280;67802;50.846;7.958;2023-08-31T01:59:54;97183.09;;;19.43;52.31
78509;BME280;67802;50.846;7.958;2023-08-31T02:02:19;97181.31;;;19.43;52.83
78509;BME280;67802;50.846;7.958;2023-08-31T02:04:46;97178.69;;;19.43;52.60
78509;BME280;67802;50.846;7.958;2023-08-31T02:07:11;97185.63;;;19.45;52.65
78509;BME280;67802;50.846;7.958;2023-08-31T02:09:36;97191.72;;;19.45;52.65
78509;BME280;67802;50.846;7.958;2023-08-31T02:12:02;97175.78;;;19.47;52.47
78509;BME280;67802;50.846;7.958;2023-08-31T02:14:29;97188.69;;;19.50;52.49
78509;BME280;67802;50.846;7.958;2023-08-31T02:16:55;97195.59;;;19.51;52.51
78509;BME280;67802;50.846;7.958;2023-08-31T02:19:20;97192.13;;;19.50;52.53
78509;BME280;67802;50.846;7.958;2023-08-31T02:21:45;97189.38;;;19.52;52.30
78509;BME280;67802;50.846;7.958;2023-08-31T02:24:11;97191.03;;;19.53;52.16
78509;BME280;67802;50.846;7.958;2023-08-31T02:26:36;97191.03;;;19.53;52.19
78509;BME280;67802;50.846;7.958;2023-08-31T02:29:02;97195.34;;;19.54;52.26
78509;BME280;67802;50.846;7.958;2023-08-31T02:31:28;97192.69;;;19.54;52.31
78509;BME280;67802;50.846;7.958;2023-08-31T02:33:53;97198.94;;;19.53;52.34
78509;BME280;67802;50.846;7.958;2023-08-31T02:36:18;97198.94;;;19.53;52.32
78509;BME280;67802;50.846;7.958;2023-08-31T02:38:45;97198.09;;;19.52;52.41
78509;BME280;67802;50.846;7.958;2023-08-31T02:41:11;97198.94;;;19.53;52.24
78509;BME280;67802;50.846;7.958;2023-08-31T02:43:36;97199.22;;;19.50;52.23
78509;BME280;67802;50.846;7.958;2023-08-31T02:46:02;97201.84;;;19.50;51.95
78509;BME280;67802;50.846;7.958;2023-08-31T02:48:29;97204.47;;;19.50;52.06
78509;BME280;67802;50.846;7.958;2023-08-31T02:50:57;97205.44;;;19.49;52.13
78509;BME280;67802;50.846;7.958;2023-08-31T02:53:22;97206.41;;;19.48;52.35
78509;BME280;67802;50.846;7.958;2023-08-31T02:55:48;97209.19;;;19.46;52.12
78509;BME280;67802;50.846;7.958;2023-08-31T02:58:15;97210.16;;;19.45;52.10
78509;BME280;67802;50.846;7.958;2023-08-31T03:00:41;97205.03;;;19.43;52.29
78509;BME280;67802;50.846;7.958;2023-08-31T03:03:08;97202.41;;;19.43;52.18
78509;BME280;67802;50.846;7.958;2023-08-31T03:05:33;97206.97;;;19.41;52.04
78509;BME280;67802;50.846;7.958;2023-08-31T03:07:59;97203.47;;;19.41;52.04
78509;BME280;67802;50.846;7.958;2023-08-31T03:10:24;97204.59;;;19.38;52.04
78509;BME280;67802;50.846;7.958;2023-08-31T03:12:49;97197.53;;;19.39;52.21
78509;BME280;67802;50.846;7.958;2023-08-31T03:15:15;97195.03;;;19.37;52.28
78509;BME280;67802;50.846;7.958;2023-08-31T03:17:40;97195.03;;;19.37;52.25
78509;BME280;67802;50.846;7.958;2023-08-31T03:20:06;97195.03;;;19.37;52.25
78509;BME280;67802;50.846;7.958;2023-08-31T03:22:32;97195.75;;;19.39;52.30
78509;BME280;67802;50.846;7.958;2023-08-31T03:24:57;97199.06;;;19.41;52.24
78509;BME280;67802;50.846;7.958;2023-08-31T03:27:23;97198.09;;;19.42;52.10
78509;BME280;67802;50.846;7.958;2023-08-31T03:29:48;97198.09;;;19.42;52.19
78509;BME280;67802;50.846;7.958;2023-08-31T03:32:13;97198.78;;;19.45;52.19
78509;BME280;67802;50.846;7.958;2023-08-31T03:34:39;97200.31;;;19.47;52.14
78509;BME280;67802;50.846;7.958;2023-08-31T03:37:04;97196.56;;;19.50;52.07
78509;BME280;67802;50.846;7.958;2023-08-31T03:39:29;97193.94;;;19.50;52.06
78509;BME280;67802;50.846;7.958;2023-08-31T03:41:54;97198.94;;;19.53;52.09
78509;BME280;67802;50.846;7.958;2023-08-31T03:44:20;97199.75;;;19.53;52.12
78509;BME280;67802;50.846;7.958;2023-08-31T03:46:46;97206.69;;;19.54;52.00
78509;BME280;67802;50.846;7.958;2023-08-31T03:49:11;97201.41;;;19.54;52.03
78509;BME280;67802;50.846;7.958;2023-08-31T03:51:37;97205.88;;;19.54;52.06
78509;BME280;67802;50.846;7.958;2023-08-31T03:54:02;97209.31;;;19.54;52.01
78509;BME280;67802;50.846;7.958;2023-08-31T03:56:27;97212.81;;;19.55;51.76
78509;BME280;67802;50.846;7.958;2023-08-31T03:58:53;97216.41;;;19.54;51.67
78509;BME280;67802;50.846;7.958;2023-08-31T04:01:18;97217.22;;;19.54;51.68
78509;BME280;67802;50.846;7.958;2023-08-31T04:03:44;97225.28;;;19.53;51.71
78509;BME280;67802;50.846;7.958;2023-08-31T04:06:09;97220.00;;;19.53;51.74
78509;BME280;67802;50.846;7.958;2023-08-31T04:08:35;97228.03;;;19.51;51.92
78509;BME280;67802;50.846;7.958;2023-08-31T04:11:00;97233.31;;;19.51;51.64
78509;BME280;67802;50.846;7.958;2023-08-31T04:13:26;97229.00;;;19.50;51.93
78509;BME280;67802;50.846;7.958;2023-08-31T04:15:52;97233.56;;;19.48;51.83
78509;BME280;67802;50.846;7.958;2023-08-31T04:18:17;97238.03;;;19.48;51.85
78509;BME280;67802;50.846;7.958;2023-08-31T04:20:48;97242.44;;;19.47;51.91
78509;BME280;67802;50.846;7.958;2023-08-31T04:23:13;97239.00;;;19.47;51.98
78509;BME280;67802;50.846;7.958;2023-08-31T04:25:39;97241.63;;;19.47;51.91
78509;BME280;67802;50.846;7.958;2023-08-31T04:28:04;97244.13;;;19.48;51.84
78509;BME280;67802;50.846;7.958;2023-08-31T04:30:30;97246.63;;;19.50;51.87
78509;BME280;67802;50.846;7.958;2023-08-31T04:32:56;97248.28;;;19.51;51.87
78509;BME280;67802;50.846;7.958;2023-08-31T04:35:21;97251.63;;;19.53;51.72
78509;BME280;67802;50.846;7.958;2023-08-31T04:37:47;97246.34;;;19.53;51.61
78509;BME280;67802;50.846;7.958;2023-08-31T04:40:12;97255.94;;;19.54;51.60
78509;BME280;67802;50.846;7.958;2023-08-31T04:42:37;97254.94;;;19.55;51.67
78509;BME280;67802;50.846;7.958;2023-08-31T04:45:03;97254.81;;;19.56;51.61
78509;BME280;67802;50.846;7.958;2023-08-31T04:47:29;97252.16;;;19.56;51.73
78509;BME280;67802;50.846;7.958;2023-08-31T04:49:54;97248.72;;;19.56;51.69
78509;BME280;67802;50.846;7.958;2023-08-31T04:52:21;97248.72;;;19.56;51.72
78509;BME280;67802;50.846;7.958;2023-08-31T04:54:46;97246.09;;;19.56;51.63
78509;BME280;67802;50.846;7.958;2023-08-31T04:57:11;97258.41;;;19.55;51.69
78509;BME280;67802;50.846;7.958;2023-08-31T04:59:37;97263.69;;;19.55;51.77
78509;BME280;67802;50.846;7.958;2023-08-31T05:02:02;97270.75;;;19.55;51.76
78509;BME280;67802;50.846;7.958;2023-08-31T05:04:28;97263.81;;;19.54;51.47
78509;BME280;67802;50.846;7.958;2023-08-31T05:06:54;97262.00;;;19.54;51.63
78509;BME280;67802;50.846;7.958;2023-08-31T05:09:19;97273.50;;;19.53;51.76
78509;BME280;67802;50.846;7.958;2023-08-31T05:11:45;97272.69;;;19.53;51.64
78509;BME280;67802;50.846;7.958;2023-08-31T05:14:10;97272.81;;;19.51;51.55
78509;BME280;67802;50.846;7.958;2023-08-31T05:16:36;97271.16;;;19.50;51.56
78509;BME280;67802;50.846;7.958;2023-08-31T05:19:01;97274.91;;;19.48;51.49
78509;BME280;67802;50.846;7.958;2023-08-31T05:21:27;97280.28;;;19.46;51.62
78509;BME280;67802;50.846;7.958;2023-08-31T05:23:53;97281.16;;;19.47;51.56
78509;BME280;67802;50.846;7.958;2023-08-31T05:26:18;97280.44;;;19.45;51.54
78509;BME280;67802;50.846;7.958;2023-08-31T05:28:43;97283.06;;;19.45;51.57
78509;BME280;67802;50.846;7.958;2023-08-31T05:31:09;97287.66;;;19.42;51.55
78509;BME280;67802;50.846;7.958;2023-08-31T05:33:34;97288.63;;;19.41;51.60
78509;BME280;67802;50.846;7.958;2023-08-31T05:36:03;97294.84;;;19.40;51.53
78509;BME280;67802;50.846;7.958;2023-08-31T05:38:31;97295.66;;;19.41;51.69
78509;BME280;67802;50.846;7.958;2023-08-31T05:41:06;97306.09;;;19.42;51.60
78509;BME280;67802;50.846;7.958;2023-08-31T05:43:36;97311.19;;;19.44;51.59
78509;BME280;67802;50.846;7.958;2023-08-31T05:46:02;97306.78;;;19.45;51.65
78509;BME280;67802;50.846;7.958;2023-08-31T05:48:28;97310.94;;;19.47;51.55
78509;BME280;67802;50.846;7.958;2023-08-31T05:50:54;97306.50;;;19.48;51.57
78509;BME280;67802;50.846;7.958;2023-08-31T05:53:20;97309.84;;;19.50;51.57
78509;BME280;67802;50.846;7.958;2023-08-31T05:55:45;97313.19;;;19.52;51.40
78509;BME280;67802;50.846;7.958;2023-08-31T05:58:10;97313.19;;;19.52;51.41
78509;BME280;67802;50.846;7.958;2023-08-31T06:00:36;97308.59;;;19.54;51.50
78509;BME280;67802;50.846;7.958;2023-08-31T06:03:01;97312.91;;;19.55;51.37
78509;BME280;67802;50.846;7.958;2023-08-31T06:05:29;97312.75;;;19.56;51.29
78509;BME280;67802;50.846;7.958;2023-08-31T06:07:56;97315.97;;;19.60;51.26
78509;BME280;67802;50.846;7.958;2023-08-31T06:10:22;97322.75;;;19.63;51.20
78509;BME280;67802;50.846;7.958;2023-08-31T06:12:48;97323.31;;;19.66;51.08
78509;BME280;67802;50.846;7.958;2023-08-31T06:15:14;97324.84;;;19.69;50.99
78509;BME280;67802;50.846;7.958;2023-08-31T06:17:40;97326.94;;;19.75;50.78
78509;BME280;67802;50.846;7.958;2023-08-31T06:20:07;97328.19;;;19.81;50.46
78509;BME280;67802;50.846;7.958;2023-08-31T06:22:33;97328.47;;;19.87;50.39
78509;BME280;67802;50.846;7.958;2023-08-31T06:24:59;97336.97;;;20.01;49.97
78509;BME280;67802;50.846;7.958;2023-08-31T06:27:24;97333.66;;;20.09;49.23
78509;BME280;67802;50.846;7.958;2023-08-31T06:29:50;97334.06;;;20.04;49.66
78509;BME280;67802;50.846;7.958;2023-08-31T06:32:16;97341.00;;;19.95;49.77
78509;BME280;67802;50.846;7.958;2023-08-31T06:34:41;97346.66;;;19.91;50.01
78509;BME280;67802;50.846;7.958;2023-08-31T06:37:06;97341.09;;;19.84;49.52
78509;BME280;67802;50.846;7.958;2023-08-31T06:39:32;97341.38;;;19.81;49.93
78509;BME280;67802;50.846;7.958;2023-08-31T06:41:58;97341.38;;;19.81;50.14
78509;BME280;67802;50.846;7.958;2023-08-31T06:44:23;97340.34;;;20.13;49.37
78509;BME280;67802;50.846;7.958;2023-08-31T06:46:49;97346.25;;;20.54;48.49
78509;BME280;67802;50.846;7.958;2023-08-31T06:49:14;97351.47;;;20.94;47.02
78509;BME280;67802;50.846;7.958;2023-08-31T06:51:40;97351.59;;;21.30;46.35
78509;BME280;67802;50.846;7.958;2023-08-31T06:54:05;97357.59;;;21.60;45.45
78509;BME280;67802;50.846;7.958;2023-08-31T06:56:35;97362.31;;;21.66;45.09
78509;BME280;67802;50.846;7.958;2023-08-31T06:59:00;97360.13;;;21.52;45.81
78509;BME280;67802;50.846;7.958;2023-08-31T07:01:26;97358.56;;;21.31;45.88
78509;BME280;67802;50.846;7.958;2023-08-31T07:03:53;97369.50;;;21.08;46.35
78509;BME280;67802;50.846;7.958;2023-08-31T07:06:18;97371.75;;;20.93;47.11
78509;BME280;67802;50.846;7.958;2023-08-31T07:08:43;97370.97;;;20.83;47.62
78509;BME280;67802;50.846;7.958;2023-08-31T07:11:10;97370.66;;;20.76;47.71
78509;BME280;67802;50.846;7.958;2023-08-31T07:13:36;97378.59;;;20.66;47.73
78509;BME280;67802;50.846;7.958;2023-08-31T07:16:01;97379.03;;;20.61;48.02
78509;BME280;67802;50.846;7.958;2023-08-31T07:18:27;97376.41;;;20.61;47.97
78509;BME280;67802;50.846;7.958;2023-08-31T07:20:52;97374.03;;;20.58;48.07
78509;BME280;67802;50.846;7.958;2023-08-31T07:23:17;97375.81;;;20.58;48.13
78509;BME280;67802;50.846;7.958;2023-08-31T07:25:43;97370.44;;;20.59;48.08
78509;BME280;67802;50.846;7.958;2023-08-31T07:28:08;97379.31;;;20.58;48.25
78509;BME280;67802;50.846;7.958;2023-08-31T07:30:34;97379.88;;;20.52;48.16
78509;BME280;67802;50.846;7.958;2023-08-31T07:33:00;97392.94;;;20.44;48.58
78509;BME280;67802;50.846;7.958;2023-08-31T07:35:28;97384.88;;;20.36;48.78
78509;BME280;67802;50.846;7.958;2023-08-31T07:37:54;97388.75;;;20.31;48.75
78509;BME280;67802;50.846;7.958;2023-08-31T07:40:19;97392.63;;;20.27;49.07
78509;BME280;67802;50.846;7.958;2023-08-31T07:42:44;97378.91;;;20.24;48.97
78509;BME280;67802;50.846;7.958;2023-08-31T07:45:10;97384.47;;;20.21;49.09
78509;BME280;67802;50.846;7.958;2023-08-31T07:47:35;97395.13;;;20.19;49.11
78509;BME280;67802;50.846;7.958;2023-08-31T07:50:01;97391.78;;;20.17;49.29
78509;BME280;67802;50.846;7.958;2023-08-31T07:52:26;97399.72;;;20.17;49.22
78509;BME280;67802;50.846;7.958;2023-08-31T07:54:52;97403.31;;;20.16;49.28
78509;BME280;67802;50.846;7.958;2023-08-31T07:57:18;97404.44;;;20.13;49.25
78509;BME280;67802;50.846;7.958;2023-08-31T07:59:44;97394.69;;;20.14;49.52
78509;BME280;67802;50.846;7.958;2023-08-31T08:02:09;97404.00;;;20.18;49.31
78509;BME280;67802;50.846;7.958;2023-08-31T08:04:34;97407.06;;;20.23;49.24
78509;BME280;67802;50.846;7.958;2023-08-31T08:06:59;97413.72;;;20.27;49.18
78509;BME280;67802;50.846;7.958;2023-08-31T08:09:25;97412.91;;;20.27;49.06
78509;BME280;67802;50.846;7.958;2023-08-31T08:11:50;97422.63;;;20.26;49.25
78509;BME280;67802;50.846;7.958;2023-08-31T08:14:16;97414.00;;;20.24;49.29
78509;BME280;67802;50.846;7.958;2023-08-31T08:16:42;97421.94;;;20.24;49.33
78509;BME280;67802;50.846;7.958;2023-08-31T08:19:07;97424.56;;;20.24;49.16
78509;BME280;67802;50.846;7.958;2023-08-31T08:21:33;97431.50;;;20.25;49.40
78509;BME280;67802;50.846;7.958;2023-08-31T08:23:58;97426.22;;;20.25;49.32
78509;BME280;67802;50.846;7.958;2023-08-31T08:26:24;97440.09;;;20.27;49.38
78509;BME280;67802;50.846;7.958;2023-08-31T08:28:49;97432.19;;;20.27;49.38
78509;BME280;67802;50.846;7.958;2023-08-31T08:31:15;97435.53;;;20.29;49.24
78509;BME280;67802;50.846;7.958;2023-08-31T08:33:40;97439.84;;;20.30;49.29
78509;BME280;67802;50.846;7.958;2023-08-31T08:36:05;97443.44;;;20.29;49.19
78509;BME280;67802;50.846;7.958;2023-08-31T08:38:31;97438.31;;;20.28;49.21
78509;BME280;67802;50.846;7.958;2023-08-31T08:40:56;97455.13;;;20.27;49.42
78509;BME280;67802;50.846;7.958;2023-08-31T08:43:25;97448.19;;;20.26;49.33
78509;BME280;67802;50.846;7.958;2023-08-31T08:45:52;97449.97;;;20.25;49.32
78509;BME280;67802;50.846;7.958;2023-08-31T08:48:17;97453.44;;;20.26;49.42
78509;BME280;67802;50.846;7.958;2023-08-31T08:50:43;97445.38;;;20.27;49.29
78509;BME280;67802;50.846;7.958;2023-08-31T08:53:09;97455.81;;;20.29;49.24
78509;BME280;67802;50.846;7.958;2023-08-31T08:55:36;97448.03;;;20.27;49.20
78509;BME280;67802;50.846;7.958;2023-08-31T08:58:01;97446.22;;;20.28;49.35
78509;BME280;67802;50.846;7.958;2023-08-31T09:00:29;97447.06;;;20.28;49.28
78509;BME280;67802;50.846;7.958;2023-08-31T09:02:55;97447.31;;;20.25;49.28
78509;BME280;67802;50.846;7.958;2023-08-31T09:05:20;97448.28;;;20.24;49.23
78509;BME280;67802;50.846;7.958;2023-08-31T09:08:09;97441.34;;;20.23;49.28
78509;BME280;67802;50.846;7.958;2023-08-31T09:10:42;97452.06;;;20.22;49.27
78509;BME280;67802;50.846;7.958;2023-08-31T09:13:12;97442.59;;;20.19;49.40
78509;BME280;67802;50.846;7.958;2023-08-31T09:15:46;97442.47;;;20.21;49.62
78509;BME280;67802;50.846;7.958;2023-08-31T09:18:16;97448.44;;;20.23;49.46
78509;BME280;67802;50.846;7.958;2023-08-31T09:20:46;97452.59;;;20.25;49.54
78509;BME280;67802;50.846;7.958;2023-08-31T09:23:12;97453.44;;;20.26;49.57
78509;BME280;67802;50.846;7.958;2023-08-31T09:25:56;97457.06;;;20.25;49.79
78509;BME280;67802;50.846;7.958;2023-08-31T09:28:27;97447.31;;;20.25;49.52
78509;BME280;67802;50.846;7.958;2023-08-31T09:30:53;97453.44;;;20.26;49.59
78509;BME280;67802;50.846;7.958;2023-08-31T09:33:28;97448.19;;;20.26;49.68
78509;BME280;67802;50.846;7.958;2023-08-31T09:35:56;97455.25;;;20.25;49.54
78509;BME280;67802;50.846;7.958;2023-08-31T09:38:21;97449.00;;;20.26;49.51
78509;BME280;67802;50.846;7.958;2023-08-31T09:40:47;97449.84;;;20.27;49.52
78509;BME280;67802;50.846;7.958;2023-08-31T09:43:18;97445.38;;;20.27;49.46
78509;BME280;67802;50.846;7.958;2023-08-31T09:45:45;97451.50;;;20.28;49.43
78509;BME280;67802;50.846;7.958;2023-08-31T09:48:11;97437.34;;;20.29;49.33
78509;BME280;67802;50.846;7.958;2023-08-31T09:50:37;97441.78;;;20.28;49.26
78509;BME280;67802;50.846;7.958;2023-08-31T09:53:04;97440.09;;;20.27;49.03
78509;BME280;67802;50.846;7.958;2023-08-31T09:55:33;97441.09;;;20.26;49.14
78509;BME280;67802;50.846;7.958;2023-08-31T09:58:02;97446.34;;;20.26;49.27
78509;BME280;67802;50.846;7.958;2023-08-31T10:00:30;97439.28;;;20.27;49.23
78509;BME280;67802;50.846;7.958;2023-08-31T10:02:57;97441.94;;;20.27;49.15
78509;BME280;67802;50.846;7.958;2023-08-31T10:05:23;97436.78;;;20.25;49.18
78509;BME280;67802;50.846;7.958;2023-08-31T10:07:50;97451.63;;;20.26;49.30
78509;BME280;67802;50.846;7.958;2023-08-31T10:10:17;97446.94;;;20.30;49.20
78509;BME280;67802;50.846;7.958;2023-08-31T10:12:44;97447.47;;;20.34;49.28
78509;BME280;67802;50.846;7.958;2023-08-31T10:15:11;97450.13;;;20.34;49.27
78509;BME280;67802;50.846;7.958;2023-08-31T10:17:37;97443.88;;;20.35;49.42
78509;BME280;67802;50.846;7.958;2023-08-31T10:20:05;97445.69;;;20.34;49.42
78509;BME280;67802;50.846;7.958;2023-08-31T10:22:31;97450.13;;;20.34;49.44
78509;BME280;67802;50.846;7.958;2023-08-31T10:25:02;97451.94;;;20.33;49.55
78509;BME280;67802;50.846;7.958;2023-08-31T10:27:38;97462.34;;;20.35;49.62
78509;BME280;67802;50.846;7.958;2023-08-31T10:32:42;97458.72;;;20.36;49.46
78509;BME280;67802;50.846;7.958;2023-08-31T10:35:08;97465.66;;;20.37;49.63
78509;BME280;67802;50.846;7.958;2023-08-31T10:37:34;97464.56;;;20.39;49.59
78509;BME280;67802;50.846;7.958;2023-08-31T10:40:10;97460.13;;;20.40;49.72
78509;BME280;67802;50.846;7.958;2023-08-31T10:42:46;97460.94;;;20.40;49.57
78509;BME280;67802;50.846;7.958;2023-08-31T10:45:13;97458.19;;;20.42;49.56
78509;BME280;67802;50.846;7.958;2023-08-31T10:47:42;97462.59;;;20.41;49.55
78509;BME280;67802;50.846;7.958;2023-08-31T10:50:21;97462.59;;;20.41;49.67
78509;BME280;67802;50.846;7.958;2023-08-31T10:52:48;97457.34;;;20.41;49.78
78509;BME280;67802;50.846;7.958;2023-08-31T10:55:14;97461.78;;;20.41;49.69
78509;BME280;67802;50.846;7.958;2023-08-31T10:57:40;97462.75;;;20.40;49.59
78509;BME280;67802;50.846;7.958;2023-08-31T11:00:07;97454.03;;;20.39;49.71
78509;BME280;67802;50.846;7.958;2023-08-31T11:02:42;97450.53;;;20.39;49.67
78509;BME280;67802;50.846;7.958;2023-08-31T11:05:18;97458.44;;;20.39;49.69
78509;BME280;67802;50.846;7.958;2023-08-31T11:07:45;97445.25;;;20.39;49.77
78509;BME280;67802;50.846;7.958;2023-08-31T11:10:20;97449.84;;;20.37;49.70
78509;BME280;67802;50.846;7.958;2023-08-31T11:12:50;97458.59;;;20.37;49.85
78509;BME280;67802;50.846;7.958;2023-08-31T11:15:17;97455.13;;;20.37;49.83
78509;BME280;67802;50.846;7.958;2023-08-31T11:17:44;97454.31;;;20.36;49.91
78509;BME280;67802;50.846;7.958;2023-08-31T11:20:14;97458.72;;;20.36;49.97
78509;BME280;67802;50.846;7.958;2023-08-31T11:22:40;97455.28;;;20.35;49.94
78509;BME280;67802;50.846;7.958;2023-08-31T11:25:08;97462.34;;;20.35;49.96
78509;BME280;67802;50.846;7.958;2023-08-31T11:27:33;97450.97;;;20.34;49.84
78509;BME280;67802;50.846;7.958;2023-08-31T11:29:59;97458.88;;;20.34;50.04
78509;BME280;67802;50.846;7.958;2023-08-31T11:32:24;97460.66;;;20.34;50.11
78509;BME280;67802;50.846;7.958;2023-08-31T11:34:50;97457.06;;;20.35;49.91
78509;BME280;67802;50.846;7.958;2023-08-31T11:37:15;97459.56;;;20.36;50.17
78509;BME280;67802;50.846;7.958;2023-08-31T11:39:51;97457.75;;;20.37;49.93
78509;BME280;67802;50.846;7.958;2023-08-31T11:42:18;97456.78;;;20.38;50.05
78509;BME280;67802;50.846;7.958;2023-08-31T11:44:48;97455.81;;;20.39;50.00
78509;BME280;67802;50.846;7.958;2023-08-31T11:47:14;97457.63;;;20.38;49.99
78509;BME280;67802;50.846;7.958;2023-08-31T11:49:41;97455.81;;;20.39;49.97
78509;BME280;67802;50.846;7.958;2023-08-31T11:52:09;97448.75;;;20.39;50.08
78509;BME280;67802;50.846;7.958;2023-08-31T11:54:39;97454.16;;;20.38;50.11
78509;BME280;67802;50.846;7.958;2023-08-31T11:57:09;97455.81;;;20.39;50.14
78509;BME280;67802;50.846;7.958;2023-08-31T11:59:39;97453.19;;;20.39;50.21
78509;BME280;67802;50.846;7.958;2023-08-31T12:02:08;97450.53;;;20.39;50.20
78509;BME280;67802;50.846;7.958;2023-08-31T12:04:42;97446.22;;;20.38;50.19
78509;BME280;67802;50.846;7.958;2023-08-31T12:07:15;97451.50;;;20.38;50.13
78509;BME280;67802;50.846;7.958;2023-08-31T12:09:41;97440.16;;;20.37;50.17
78509;BME280;67802;50.846;7.958;2023-08-31T12:12:09;97440.97;;;20.38;50.28
78509;BME280;67802;50.846;7.958;2023-08-31T12:14:37;97434.00;;;20.37;50.25
78509;BME280;67802;50.846;7.958;2023-08-31T12:17:07;97434.88;;;20.37;50.23
78509;BME280;67802;50.846;7.958;2023-08-31T12:19:33;97433.19;;;20.36;50.23
78509;BME280;67802;50.846;7.958;2023-08-31T12:22:00;97426.25;;;20.35;50.30
78509;BME280;67802;50.846;7.958;2023-08-31T12:24:26;97420.13;;;20.35;50.37
78509;BME280;67802;50.846;7.958;2023-08-31T12:26:52;97420.13;;;20.35;50.22
78509;BME280;67802;50.846;7.958;2023-08-31T12:29:21;97414.84;;;20.35;50.31
78509;BME280;67802;50.846;7.958;2023-08-31T12:31:46;97419.31;;;20.34;50.35
78509;BME280;67802;50.846;7.958;2023-08-31T12:34:12;97418.47;;;20.34;50.42
78509;BME280;67802;50.846;7.958;2023-08-31T12:36:37;97429.88;;;20.34;50.26
78509;BME280;67802;50.846;7.958;2023-08-31T12:39:05;97409.72;;;20.33;50.40
78509;BME280;67802;50.846;7.958;2023-08-31T12:41:36;97416.69;;;20.34;50.29
78509;BME280;67802;50.846;7.958;2023-08-31T12:44:05;97414.84;;;20.35;50.33
78509;BME280;67802;50.846;7.958;2023-08-31T12:46:30;97416.69;;;20.34;50.33
78509;BME280;67802;50.846;7.958;2023-08-31T12:48:56;97425.41;;;20.35;50.39
78509;BME280;67802;50.846;7.958;2023-08-31T12:51:22;97416.53;;;20.36;50.32
78509;BME280;67802;50.846;7.958;2023-08-31T12:53:47;97421.81;;;20.36;50.21
78509;BME280;67802;50.846;7.958;2023-08-31T12:56:13;97421.81;;;20.36;50.24
78509;BME280;67802;50.846;7.958;2023-08-31T12:58:40;97427.06;;;20.36;50.24
78509;BME280;67802;50.846;7.958;2023-08-31T13:01:05;97426.09;;;20.37;50.31
78509;BME280;67802;50.846;7.958;2023-08-31T13:03:30;97421.69;;;20.37;50.30
78509;BME280;67802;50.846;7.958;2023-08-31T13:05:56;97423.47;;;20.37;50.47
78509;BME280;67802;50.846;7.958;2023-08-31T13:08:21;97430.41;;;20.38;50.21